createdAt,value
2023-03-02T00:04:30.932Z,6.0
2023-03-02T00:09:37.150Z,7.0
2023-03-02T00:14:43.468Z,7.0
2023-03-02T00:19:49.550Z,6.0
2023-03-02T00:24:55.760Z,6.0
2023-03-02T00:30:01.961Z,7.0
2023-03-02T00:35:08.179Z,8.0
2023-03-02T00:40:14.382Z,7.0
2023-03-02T00:45:20.592Z,7.0
2023-03-02T00:50:26.789Z,7.0
2023-03-02T00:55:33.007Z,7.0
2023-03-02T01:00:39.219Z,8.0
2023-03-02T01:05:45.449Z,8.0
2023-03-02T01:10:53.946Z,8.0
2023-03-02T01:15:57.888Z,8.0
2023-03-02T01:21:03.072Z,8.0
2023-03-02T01:26:09.282Z,8.0
2023-03-02T01:31:14.564Z,9.0
2023-03-02T01:36:20.717Z,9.0
2023-03-02T01:41:26.927Z,10.0
2023-03-02T01:46:33.473Z,12.0
2023-03-02T01:51:39.344Z,12.0
2023-03-02T01:56:45.548Z,12.0
2023-03-02T02:01:51.774Z,14.0
2023-03-02T02:06:57.961Z,16.0
2023-03-02T02:12:04.480Z,17.0
2023-03-02T02:17:10.393Z,18.0
2023-03-02T02:22:16.585Z,21.0
2023-03-02T02:27:22.792Z,22.0
2023-03-02T02:32:29.015Z,24.0
2023-03-02T02:37:35.218Z,25.0
2023-03-02T02:42:41.412Z,26.0
2023-03-02T02:47:47.662Z,26.0
2023-03-02T02:52:53.824Z,27.0
2023-03-02T02:58:00.037Z,28.0
2023-03-02T03:03:06.257Z,27.5
2023-03-02T03:08:12.455Z,28.0
2023-03-02T03:13:18.648Z,30.5
2023-03-02T03:18:23.895Z,30.0
2023-03-02T03:23:29.109Z,32.0
2023-03-02T03:28:34.353Z,32.0
2023-03-02T03:33:40.545Z,29.5
2023-03-02T03:38:46.751Z,31.0
2023-03-02T03:43:52.967Z,33.0
2023-03-02T03:48:59.174Z,31.5
2023-03-02T03:54:05.413Z,32.0
2023-03-02T03:59:11.595Z,29.0
2023-03-02T04:04:18.063Z,31.0
2023-03-02T04:09:24.060Z,31.0
2023-03-02T04:14:30.232Z,30.0
2023-03-02T04:19:36.427Z,33.0
2023-03-02T04:24:42.638Z,32.0
2023-03-02T04:29:48.858Z,31.0
2023-03-02T04:34:55.366Z,34.0
2023-03-02T04:40:01.281Z,35.0
2023-03-02T04:45:07.511Z,36.0
2023-03-02T04:50:13.706Z,35.0
2023-03-02T04:55:19.905Z,36.0
2023-03-02T05:00:26.101Z,37.0
2023-03-02T05:05:32.328Z,39.0
2023-03-02T05:10:38.518Z,39.0
2023-03-02T05:15:43.791Z,42.0
2023-03-02T05:20:49.956Z,39.0
2023-03-02T05:25:55.188Z,44.0
2023-03-02T05:31:01.420Z,42.0
2023-03-02T05:36:07.604Z,42.0
2023-03-02T05:41:13.815Z,42.0
2023-03-02T05:46:22.001Z,42.0
2023-03-02T05:51:26.246Z,42.0
2023-03-02T05:56:32.880Z,44.5
2023-03-02T06:01:38.715Z,41.0
2023-03-02T06:06:44.856Z,41.0
2023-03-02T06:11:51.069Z,40.5
2023-03-02T06:16:57.389Z,40.0
2023-03-02T06:22:03.483Z,40.0
2023-03-02T06:27:09.694Z,38.0
2023-03-02T06:32:16.098Z,40.0
2023-03-02T06:37:22.113Z,39.0
2023-03-02T06:42:28.310Z,39.0
2023-03-02T06:47:34.522Z,40.0
2023-03-02T06:52:40.725Z,39.0
2023-03-02T06:57:46.928Z,39.0
2023-03-02T07:02:53.138Z,39.0
2023-03-02T07:07:59.341Z,39.5
2023-03-02T07:13:04.585Z,40.0
2023-03-02T07:18:10.782Z,39.0
2023-03-02T07:23:16.014Z,39.0
2023-03-02T07:28:22.226Z,36.0
2023-03-02T07:33:28.438Z,36.0
2023-03-02T07:38:34.639Z,36.0
2023-03-02T07:43:40.876Z,34.0
2023-03-02T07:48:47.056Z,35.0
2023-03-02T07:53:53.264Z,36.0
2023-03-02T07:58:59.481Z,32.0
2023-03-02T08:04:05.745Z,32.0
2023-03-02T08:09:11.896Z,34.5
2023-03-02T08:14:18.102Z,33.0
2023-03-02T08:19:24.310Z,32.0
2023-03-02T08:24:30.522Z,33.0
2023-03-02T08:29:36.723Z,30.0
2023-03-02T08:34:42.948Z,30.0
2023-03-02T08:39:49.144Z,29.0
2023-03-02T08:44:55.532Z,26.5
2023-03-02T08:50:01.553Z,25.0
2023-03-02T08:55:07.958Z,24.0
2023-03-02T09:00:13.953Z,21.0
2023-03-02T09:05:20.169Z,19.0
2023-03-02T09:10:25.402Z,19.0
2023-03-02T09:15:31.659Z,19.5
2023-03-02T09:20:36.843Z,18.0
2023-03-02T09:25:44.682Z,17.0
2023-03-02T09:30:49.489Z,17.5
2023-03-02T09:35:55.472Z,17.0
2023-03-02T09:41:01.705Z,16.0
2023-03-02T09:46:07.984Z,17.0
2023-03-02T09:51:14.089Z,18.0
2023-03-02T09:56:20.304Z,17.0
2023-03-02T10:01:26.510Z,16.0
2023-03-02T10:06:33.061Z,16.0
2023-03-02T10:11:38.934Z,17.0
2023-03-02T10:16:45.126Z,18.0
2023-03-02T10:21:51.339Z,20.0
2023-03-02T10:26:57.674Z,18.0
2023-03-02T10:32:03.844Z,17.0
2023-03-02T10:37:09.956Z,19.0
2023-03-02T10:42:16.250Z,16.0
2023-03-02T10:47:22.363Z,13.0
2023-03-02T10:52:28.592Z,15.0
2023-03-02T10:57:34.776Z,16.0
2023-03-02T11:02:41.004Z,17.0
2023-03-02T11:07:46.226Z,16.5
2023-03-02T11:12:52.433Z,17.0
2023-03-02T11:17:58.653Z,16.0
2023-03-02T11:23:03.873Z,15.0
2023-03-02T11:28:10.089Z,15.0
2023-03-02T11:33:16.310Z,15.0
2023-03-02T11:38:22.498Z,12.0
2023-03-02T11:43:28.710Z,12.0
2023-03-02T11:48:34.921Z,14.0
2023-03-02T11:53:41.201Z,13.0
2023-03-02T11:58:47.330Z,13.0
2023-03-02T12:03:53.538Z,11.5
2023-03-02T12:08:59.793Z,11.0
2023-03-02T12:14:05.953Z,12.0
2023-03-02T12:19:12.182Z,13.0
2023-03-02T12:24:18.404Z,12.0
2023-03-02T12:29:24.663Z,10.5
2023-03-02T12:34:31.373Z,11.5
2023-03-02T12:39:37.030Z,12.0
2023-03-02T12:44:43.203Z,10.0
2023-03-02T12:49:49.424Z,10.0
2023-03-02T12:54:55.623Z,10.0
2023-03-02T13:00:01.843Z,10.0
2023-03-02T13:05:08.043Z,10.0
2023-03-02T13:10:13.338Z,10.0
2023-03-02T13:15:19.472Z,10.0
2023-03-02T13:20:24.754Z,9.0
2023-03-02T13:25:30.918Z,10.0
2023-03-02T13:30:37.349Z,8.0
2023-03-02T13:35:43.333Z,8.0
2023-03-02T13:40:49.874Z,8.0
2023-03-02T13:45:55.807Z,8.0
2023-03-02T13:51:01.964Z,9.0
2023-03-02T13:56:08.277Z,9.0
2023-03-02T14:01:14.403Z,9.0
2023-03-02T14:06:20.579Z,9.0
2023-03-02T14:11:26.786Z,8.0
2023-03-02T14:16:33.334Z,9.0
2023-03-02T14:21:39.251Z,8.5
2023-03-02T14:26:45.416Z,8.0
2023-03-02T14:31:51.708Z,8.0
2023-03-02T14:36:57.968Z,9.0
2023-03-02T14:42:04.053Z,8.0
2023-03-02T14:47:10.254Z,9.0
2023-03-02T14:52:16.466Z,8.0
2023-03-02T14:57:22.664Z,8.0
2023-03-02T15:02:28.980Z,9.0
2023-03-02T15:07:34.162Z,8.0
2023-03-02T15:12:40.325Z,8.0
2023-03-02T15:17:46.539Z,9.0
2023-03-02T15:22:52.749Z,9.0
2023-03-02T15:27:57.977Z,8.0
2023-03-02T15:33:04.188Z,8.0
2023-03-02T15:38:10.393Z,8.0
2023-03-02T15:43:16.617Z,7.0
2023-03-02T15:48:22.814Z,7.0
2023-03-02T15:53:29.017Z,6.0
2023-03-02T15:58:35.221Z,6.0
2023-03-02T16:03:41.436Z,6.0
2023-03-02T16:08:47.640Z,6.0
2023-03-02T16:13:53.854Z,6.0
2023-03-02T16:19:00.048Z,7.0
2023-03-02T16:24:06.279Z,11.0
2023-03-02T16:29:12.496Z,12.0
2023-03-02T16:34:18.691Z,13.0
2023-03-02T16:39:24.892Z,12.0
2023-03-02T16:44:31.111Z,13.0
2023-03-02T16:49:37.301Z,12.0
2023-03-02T16:54:43.564Z,13.0
2023-03-02T16:59:49.720Z,13.0
2023-03-02T17:04:55.941Z,13.0
2023-03-02T17:10:02.140Z,14.0
2023-03-02T17:15:07.370Z,14.0
2023-03-02T17:20:13.583Z,14.0
2023-03-02T17:25:19.154Z,17.0
2023-03-02T17:30:25.023Z,14.0
2023-03-02T17:35:31.245Z,15.0
2023-03-02T17:40:37.441Z,14.0
2023-03-02T17:45:43.647Z,14.0
2023-03-02T17:50:49.847Z,15.0
2023-03-02T17:55:56.058Z,14.0
2023-03-02T18:01:02.270Z,14.5
2023-03-02T18:06:08.477Z,15.0
2023-03-02T18:11:14.684Z,15.0
2023-03-02T18:16:20.946Z,16.0
2023-03-02T18:21:27.092Z,16.0
2023-03-02T18:26:33.302Z,17.0
2023-03-02T18:31:39.848Z,17.0
2023-03-02T18:36:45.717Z,17.0
2023-03-02T18:41:51.939Z,19.0
2023-03-02T18:46:58.175Z,20.0
2023-03-02T18:52:04.336Z,19.5
2023-03-02T18:57:10.544Z,20.0
2023-03-02T19:02:16.827Z,19.0
2023-03-02T19:07:22.958Z,21.0
2023-03-02T19:12:28.198Z,21.0
2023-03-02T19:17:34.412Z,22.0
2023-03-02T19:22:39.643Z,22.0
2023-03-02T19:27:45.850Z,23.0
2023-03-02T19:32:52.058Z,21.5
2023-03-02T19:37:58.259Z,22.0
2023-03-02T19:43:04.469Z,22.0
2023-03-02T19:48:10.672Z,22.5
2023-03-02T19:53:16.890Z,23.0
2023-03-02T19:58:23.080Z,22.0
2023-03-02T20:03:29.297Z,23.0
2023-03-02T20:08:35.530Z,22.0
2023-03-02T20:13:41.731Z,21.0
2023-03-02T20:18:47.912Z,20.5
2023-03-02T20:23:54.131Z,21.0
2023-03-02T20:28:59.350Z,20.0
2023-03-02T20:34:05.573Z,20.0
2023-03-02T20:39:11.781Z,20.5
2023-03-02T20:44:17.971Z,21.0
2023-03-02T20:49:24.174Z,22.0
2023-03-02T20:54:30.395Z,22.0
2023-03-02T20:59:36.599Z,21.5
2023-03-02T21:04:42.870Z,22.5
2023-03-02T21:09:48.038Z,22.0
2023-03-02T21:14:54.237Z,21.0
2023-03-02T21:19:59.469Z,23.0
2023-03-02T21:25:05.682Z,22.0
2023-03-02T21:30:11.916Z,23.0
2023-03-02T21:35:18.122Z,23.5
2023-03-02T21:40:24.305Z,24.0
2023-03-02T21:45:30.513Z,23.0
2023-03-02T21:50:36.736Z,24.5
2023-03-02T21:55:42.927Z,25.0
2023-03-02T22:00:49.136Z,27.0
2023-03-02T22:05:55.344Z,25.0
2023-03-02T22:11:01.557Z,28.0
2023-03-02T22:16:07.804Z,28.0
2023-03-02T22:21:13.972Z,27.0
2023-03-02T22:26:20.177Z,27.0
2023-03-02T22:31:26.398Z,27.0
2023-03-02T22:36:32.583Z,29.0
2023-03-02T22:41:38.812Z,30.0
2023-03-02T22:46:45.063Z,29.5
2023-03-02T22:51:51.213Z,30.0
2023-03-02T22:56:57.427Z,30.0
2023-03-02T23:02:03.642Z,29.0
2023-03-02T23:07:08.861Z,30.0
2023-03-02T23:17:20.299Z,31.0
2023-03-02T23:22:26.518Z,29.5
2023-03-02T23:27:32.723Z,30.0
2023-03-02T23:32:38.953Z,31.5
2023-03-02T23:37:45.280Z,29.0
2023-03-02T23:42:51.336Z,30.0
2023-03-02T23:47:57.534Z,30.0
2023-03-02T23:53:04.055Z,31.0
2023-03-02T23:58:09.949Z,31.0
